createdAt,value
2019-05-07T00:02:06.041Z,7.90
2019-05-07T00:05:12.007Z,7.87
2019-05-07T00:08:15.642Z,7.85
2019-05-07T00:11:19.465Z,7.78
2019-05-07T00:14:23.491Z,7.64
2019-05-07T00:17:27.644Z,7.58
2019-05-07T00:20:32.685Z,7.47
2019-05-07T00:23:37.217Z,7.56
2019-05-07T00:26:43.032Z,7.58
2019-05-07T00:29:47.135Z,7.47
2019-05-07T00:32:53.119Z,7.49
2019-05-07T00:36:09.040Z,7.40
2019-05-07T00:39:32.679Z,7.37
2019-05-07T00:42:55.268Z,7.35
2019-05-07T00:46:17.842Z,7.41
2019-05-07T00:49:23.544Z,7.40
2019-05-07T00:52:27.677Z,7.36
2019-05-07T00:55:32.616Z,7.30
2019-05-07T00:58:36.595Z,7.30
2019-05-07T01:01:40.476Z,7.22
2019-05-07T01:04:44.545Z,7.20
2019-05-07T01:07:48.880Z,7.04
2019-05-07T01:10:53.380Z,6.94
2019-05-07T01:13:57.323Z,6.91
2019-05-07T01:17:02.439Z,6.90
2019-05-07T01:20:06.592Z,6.83
2019-05-07T01:23:13.232Z,6.77
2019-05-07T01:26:16.357Z,6.76
2019-05-07T01:29:22.449Z,6.79
2019-05-07T01:32:34.659Z,6.77
2019-05-07T01:35:56.560Z,6.79
2019-05-07T01:39:02.669Z,6.82
2019-05-07T01:42:06.713Z,6.80
2019-05-07T01:45:12.921Z,6.73
2019-05-07T01:48:17.584Z,6.75
2019-05-07T01:51:22.313Z,6.70
2019-05-07T01:54:26.101Z,6.67
2019-05-07T01:57:29.921Z,6.58
2019-05-07T02:00:33.807Z,6.50
2019-05-07T02:03:46.475Z,6.47
2019-05-07T02:07:08.528Z,6.46
2019-05-07T02:10:32.103Z,6.44
2019-05-07T02:13:36.406Z,6.42
2019-05-07T02:16:41.880Z,6.37
2019-05-07T02:19:45.988Z,6.35
2019-05-07T02:22:49.782Z,6.38
2019-05-07T02:25:54.323Z,6.36
2019-05-07T02:28:58.170Z,6.38
2019-05-07T02:32:04.696Z,6.36
2019-05-07T02:35:13.669Z,6.34
2019-05-07T02:38:36.619Z,6.28
2019-05-07T02:41:43.737Z,6.22
2019-05-07T02:45:04.721Z,6.16
2019-05-07T02:48:09.289Z,6.03
2019-05-07T02:51:23.937Z,5.91
2019-05-07T02:54:53.617Z,5.85
2019-05-07T02:57:58.931Z,5.85
2019-05-07T03:01:04.811Z,5.84
2019-05-07T03:04:09.030Z,5.79
2019-05-07T03:07:13.368Z,5.71
2019-05-07T03:10:17.448Z,5.79
2019-05-07T03:13:23.611Z,5.80
2019-05-07T03:16:39.959Z,5.79
2019-05-07T03:19:35.920Z,5.75
2019-05-07T03:22:42.835Z,5.63
2019-05-07T03:26:17.896Z,5.62
2019-05-07T03:29:24.117Z,5.67
2019-05-07T03:32:40.376Z,5.73
2019-05-07T03:35:56.825Z,5.67
2019-05-07T03:39:03.392Z,5.68
2019-05-07T03:42:06.846Z,5.66
2019-05-07T03:45:33.309Z,5.63
2019-05-07T03:48:36.431Z,5.61
2019-05-07T03:51:43.962Z,5.56
2019-05-07T03:54:46.810Z,5.59
2019-05-07T03:57:52.692Z,5.55
2019-05-07T04:00:57.083Z,5.54
2019-05-07T04:04:03.748Z,5.48
2019-05-07T04:07:06.883Z,5.45
2019-05-07T04:10:14.437Z,5.46
2019-05-07T04:13:16.516Z,5.38
2019-05-07T04:16:23.627Z,5.29
2019-05-07T04:19:26.055Z,5.28
2019-05-07T04:22:30.207Z,5.27
2019-05-07T04:25:44.042Z,5.29
2019-05-07T04:29:05.731Z,5.29
2019-05-07T04:32:08.821Z,5.18
2019-05-07T04:35:24.832Z,5.16
2019-05-07T04:38:29.815Z,5.17
2019-05-07T04:41:33.669Z,5.15
2019-05-07T04:44:37.442Z,5.20
2019-05-07T04:47:47.004Z,5.20
2019-05-07T04:50:48.973Z,5.20
2019-05-07T04:53:54.121Z,5.20
2019-05-07T04:56:58.770Z,5.18
2019-05-07T05:00:03.630Z,5.13
2019-05-07T05:03:18.274Z,5.13
2019-05-07T05:06:24.215Z,5.26
2019-05-07T05:09:27.801Z,5.31
2019-05-07T05:12:32.684Z,5.41
2019-05-07T05:15:37.180Z,5.51
2019-05-07T05:18:41.988Z,5.58
2019-05-07T05:22:01.989Z,5.73
2019-05-07T05:25:25.264Z,5.85
2019-05-07T05:28:29.181Z,5.84
2019-05-07T05:31:33.252Z,5.91
2019-05-07T05:34:37.143Z,6.05
2019-05-07T05:37:42.919Z,6.18
2019-05-07T05:40:46.837Z,6.27
2019-05-07T05:44:08.174Z,6.33
2019-05-07T05:47:12.088Z,6.40
2019-05-07T05:50:16.351Z,6.55
2019-05-07T05:53:32.818Z,6.59
2019-05-07T05:56:43.373Z,6.77
2019-05-07T06:00:08.993Z,6.93
2019-05-07T06:03:47.210Z,7.10
2019-05-07T06:07:08.817Z,7.27
2019-05-07T06:10:18.187Z,7.38
2019-05-07T06:13:27.966Z,7.48
2019-05-07T06:16:36.692Z,7.62
2019-05-07T06:19:56.429Z,7.68
2019-05-07T06:23:35.205Z,7.80
2019-05-07T06:26:39.008Z,7.94
2019-05-07T06:29:42.893Z,8.10
2019-05-07T06:32:46.933Z,8.25
2019-05-07T06:35:52.044Z,8.30
2019-05-07T06:39:02.582Z,8.33
2019-05-07T06:42:33.224Z,8.36
2019-05-07T06:45:42.184Z,8.18
2019-05-07T06:48:46.612Z,8.34
2019-05-07T06:51:52.674Z,8.45
2019-05-07T06:54:56.307Z,8.56
2019-05-07T06:58:02.678Z,8.58
2019-05-07T07:01:37.053Z,8.73
2019-05-07T07:05:03.312Z,8.93
2019-05-07T07:08:15.090Z,9.23
2019-05-07T07:11:25.298Z,9.44
2019-05-07T07:14:29.289Z,9.60
2019-05-07T07:17:33.712Z,9.71
2019-05-07T07:20:37.601Z,9.73
2019-05-07T07:23:42.939Z,9.90
2019-05-07T07:26:47.132Z,9.87
2019-05-07T07:30:08.299Z,9.77
2019-05-07T07:33:13.081Z,9.94
2019-05-07T07:36:17.371Z,9.96
2019-05-07T07:39:22.071Z,9.91
2019-05-07T07:42:25.998Z,10.05
2019-05-07T07:45:32.266Z,10.13
2019-05-07T07:48:35.921Z,10.27
2019-05-07T07:51:44.520Z,10.23
2019-05-07T07:54:45.501Z,10.51
2019-05-07T07:58:07.361Z,10.50
2019-05-07T08:01:16.112Z,10.80
2019-05-07T08:04:20.021Z,10.74
2019-05-07T08:07:23.973Z,10.84
2019-05-07T08:10:27.877Z,10.95
2019-05-07T08:13:32.600Z,10.95
2019-05-07T08:16:36.776Z,10.88
2019-05-07T08:19:42.802Z,11.15
2019-05-07T08:22:46.551Z,11.15
2019-05-07T08:25:52.569Z,11.38
2019-05-07T08:28:56.280Z,11.43
2019-05-07T08:32:34.353Z,11.50
2019-05-07T08:35:42.119Z,11.35
2019-05-07T08:39:13.037Z,11.27
2019-05-07T08:42:17.646Z,11.59
2019-05-07T08:45:39.849Z,11.78
2019-05-07T08:48:47.369Z,12.10
2019-05-07T08:52:03.043Z,12.02
2019-05-07T08:55:07.119Z,12.08
2019-05-07T08:58:12.074Z,12.35
2019-05-07T09:01:16.882Z,12.63
2019-05-07T09:04:21.958Z,12.59
2019-05-07T09:07:25.964Z,12.67
2019-05-07T09:10:29.868Z,12.33
2019-05-07T09:13:34.244Z,12.29
2019-05-07T09:16:38.187Z,12.40
2019-05-07T09:19:50.755Z,12.86
2019-05-07T09:22:48.048Z,13.34
2019-05-07T09:25:53.085Z,13.40
2019-05-07T09:29:11.831Z,13.49
2019-05-07T09:32:33.845Z,13.53
2019-05-07T09:35:42.517Z,13.46
2019-05-07T09:38:56.930Z,13.61
2019-05-07T09:41:52.722Z,13.58
2019-05-07T09:44:56.624Z,13.78
2019-05-07T09:48:02.596Z,13.96
2019-05-07T09:51:06.084Z,13.78
2019-05-07T09:54:10.014Z,13.95
2019-05-07T09:57:27.338Z,13.79
2019-05-07T10:00:22.628Z,13.88
2019-05-07T10:03:27.017Z,14.12
2019-05-07T10:06:32.108Z,14.27
2019-05-07T10:09:36.142Z,14.56
2019-05-07T10:12:49.913Z,14.36
2019-05-07T10:15:54.267Z,14.29
2019-05-07T10:18:58.269Z,14.41
2019-05-07T10:22:02.520Z,14.85
2019-05-07T10:25:07.407Z,14.71
2019-05-07T10:28:12.525Z,14.85
2019-05-07T10:31:17.637Z,14.89
2019-05-07T10:34:22.810Z,15.17
2019-05-07T10:37:26.963Z,14.97
2019-05-07T10:40:32.738Z,14.60
2019-05-07T10:43:36.749Z,14.54
2019-05-07T10:46:59.187Z,14.62
2019-05-07T10:50:31.735Z,14.55
2019-05-07T10:53:24.874Z,14.50
2019-05-07T10:56:28.834Z,14.55
2019-05-07T10:59:33.075Z,14.60
2019-05-07T11:02:39.253Z,14.45
2019-05-07T11:05:42.806Z,14.69
2019-05-07T11:08:46.970Z,14.35
2019-05-07T11:11:51.859Z,14.10
2019-05-07T11:14:56.216Z,14.06
2019-05-07T11:18:09.904Z,14.19
2019-05-07T11:21:14.388Z,14.33
2019-05-07T11:24:18.188Z,14.39
2019-05-07T11:27:22.571Z,14.06
2019-05-07T11:30:26.500Z,13.89
2019-05-07T11:33:32.450Z,14.18
2019-05-07T11:36:36.459Z,14.25
2019-05-07T11:39:42.741Z,14.19
2019-05-07T11:43:05.788Z,14.31
2019-05-07T11:46:32.780Z,14.40
2019-05-07T11:49:55.144Z,14.47
2019-05-07T11:53:05.073Z,14.34
2019-05-07T11:56:09.059Z,14.43
2019-05-07T11:59:13.735Z,14.64
2019-05-07T12:02:17.660Z,13.92
2019-05-07T12:05:22.702Z,13.87
2019-05-07T12:08:41.077Z,14.17
2019-05-07T12:11:32.360Z,14.37
2019-05-07T12:14:36.834Z,14.62
2019-05-07T12:17:42.809Z,15.23
2019-05-07T12:20:46.529Z,15.02
2019-05-07T12:23:52.484Z,14.58
2019-05-07T12:26:56.595Z,14.60
2019-05-07T12:30:00.386Z,14.84
2019-05-07T12:33:13.778Z,15.02
2019-05-07T12:36:17.592Z,15.17
2019-05-07T12:39:22.144Z,15.19
2019-05-07T12:42:26.326Z,15.22
2019-05-07T12:45:30.857Z,15.49
2019-05-07T12:48:34.853Z,15.68
2019-05-07T12:51:58.126Z,15.57
2019-05-07T12:55:17.399Z,15.33
2019-05-07T12:58:21.853Z,15.50
2019-05-07T13:01:35.682Z,15.72
2019-05-07T13:04:41.647Z,15.78
2019-05-07T13:07:51.748Z,15.65
2019-05-07T13:10:55.791Z,15.72
2019-05-07T13:13:59.665Z,15.82
2019-05-07T13:17:04.059Z,15.97
2019-05-07T13:20:08.237Z,15.78
2019-05-07T13:23:12.483Z,15.47
2019-05-07T13:26:16.762Z,15.03
2019-05-07T13:29:22.207Z,15.16
2019-05-07T13:32:28.108Z,15.64
2019-05-07T13:35:32.644Z,15.32
2019-05-07T13:38:51.933Z,14.99
2019-05-07T13:42:08.437Z,14.81
2019-05-07T13:45:22.630Z,15.09
2019-05-07T13:48:26.899Z,15.36
2019-05-07T13:51:33.594Z,15.44
2019-05-07T13:54:37.438Z,15.81
2019-05-07T13:57:41.843Z,16.08
2019-05-07T14:00:58.608Z,15.98
2019-05-07T14:04:04.120Z,15.82
2019-05-07T14:07:08.508Z,16.03
2019-05-07T14:10:13.203Z,16.09
2019-05-07T14:13:17.646Z,15.86
2019-05-07T14:16:22.294Z,16.27
2019-05-07T14:19:26.332Z,16.81
2019-05-07T14:22:31.863Z,17.01
2019-05-07T14:25:36.118Z,17.29
2019-05-07T14:28:42.130Z,17.95
2019-05-07T14:31:51.726Z,17.95
2019-05-07T14:35:18.815Z,17.47
2019-05-07T14:38:34.044Z,17.47
2019-05-07T14:41:38.142Z,17.48
2019-05-07T14:44:49.238Z,17.52
2019-05-07T14:47:53.610Z,17.86
2019-05-07T14:50:57.575Z,18.17
2019-05-07T14:54:02.153Z,18.17
2019-05-07T14:57:06.237Z,18.28
2019-05-07T15:00:12.253Z,18.62
2019-05-07T15:03:16.571Z,18.83
2019-05-07T15:06:21.902Z,18.92
2019-05-07T15:09:25.890Z,19.26
2019-05-07T15:12:29.781Z,19.25
2019-05-07T15:15:33.628Z,19.08
2019-05-07T15:18:50.270Z,18.19
2019-05-07T15:21:57.791Z,18.16
2019-05-07T15:25:02.937Z,18.75
2019-05-07T15:28:07.839Z,18.16
2019-05-07T15:31:17.888Z,17.88
2019-05-07T15:34:22.162Z,18.10
2019-05-07T15:37:26.302Z,18.05
2019-05-07T15:40:30.207Z,18.12
2019-05-07T15:43:34.329Z,17.96
2019-05-07T15:46:38.638Z,18.18
2019-05-07T15:49:43.357Z,18.58
2019-05-07T15:53:07.286Z,18.61
2019-05-07T15:56:12.479Z,18.17
2019-05-07T15:59:22.693Z,17.93
2019-05-07T16:02:34.546Z,18.28
2019-05-07T16:05:38.440Z,18.41
2019-05-07T16:08:51.739Z,18.14
2019-05-07T16:11:56.270Z,17.77
2019-05-07T16:15:03.008Z,17.49
2019-05-07T16:18:09.528Z,17.90
2019-05-07T16:21:13.698Z,18.22
2019-05-07T16:24:17.571Z,17.69
2019-05-07T16:27:22.422Z,17.50
2019-05-07T16:30:28.117Z,17.33
2019-05-07T16:33:34.800Z,17.35
2019-05-07T16:36:37.838Z,17.66
2019-05-07T16:39:42.230Z,17.68
2019-05-07T16:42:47.495Z,17.47
2019-05-07T16:45:51.844Z,16.83
2019-05-07T16:48:56.455Z,16.82
2019-05-07T16:52:01.795Z,16.82
2019-05-07T16:55:06.359Z,17.02
2019-05-07T16:58:20.206Z,17.25
2019-05-07T17:01:24.459Z,17.25
2019-05-07T17:04:27.799Z,17.28
2019-05-07T17:07:32.212Z,17.28
2019-05-07T17:10:36.199Z,17.16
2019-05-07T17:13:42.284Z,16.85
2019-05-07T17:16:45.762Z,16.68
2019-05-07T17:19:52.094Z,16.45
2019-05-07T17:22:55.555Z,16.35
2019-05-07T17:25:59.528Z,16.27
2019-05-07T17:29:03.392Z,16.31
2019-05-07T17:32:07.335Z,16.44
2019-05-07T17:35:12.831Z,16.51
2019-05-07T17:38:17.198Z,16.58
2019-05-07T17:41:26.529Z,16.54
2019-05-07T17:44:26.757Z,16.29
2019-05-07T17:47:33.810Z,16.01
2019-05-07T17:50:43.468Z,16.04
2019-05-07T17:53:59.160Z,16.16
2019-05-07T17:56:53.792Z,15.90
2019-05-07T17:59:57.639Z,15.90
2019-05-07T18:03:32.975Z,15.91
2019-05-07T18:06:37.155Z,15.97
2019-05-07T18:09:42.450Z,15.88
2019-05-07T18:12:46.850Z,15.71
2019-05-07T18:15:52.063Z,15.67
2019-05-07T18:18:56.310Z,15.67
2019-05-07T18:22:02.612Z,15.78
2019-05-07T18:25:06.652Z,15.78
2019-05-07T18:28:12.304Z,15.79
2019-05-07T18:31:17.258Z,15.67
2019-05-07T18:34:21.915Z,15.61
2019-05-07T18:37:25.755Z,15.59
2019-05-07T18:40:30.393Z,15.43
2019-05-07T18:43:34.384Z,15.33
2019-05-07T18:46:38.242Z,15.35
2019-05-07T18:49:44.689Z,15.38
2019-05-07T18:52:47.918Z,15.36
2019-05-07T18:55:52.701Z,15.22
2019-05-07T18:58:56.863Z,15.20
2019-05-07T19:02:02.310Z,15.08
2019-05-07T19:05:07.530Z,15.05
2019-05-07T19:08:12.553Z,14.94
2019-05-07T19:11:16.788Z,14.90
2019-05-07T19:14:22.759Z,14.76
2019-05-07T19:17:26.931Z,14.76
2019-05-07T19:20:32.628Z,14.75
2019-05-07T19:23:36.499Z,14.70
2019-05-07T19:26:42.105Z,14.63
2019-05-07T19:29:46.052Z,14.59
2019-05-07T19:32:52.041Z,14.62
2019-05-07T19:35:55.527Z,14.61
2019-05-07T19:38:59.360Z,14.56
2019-05-07T19:42:03.316Z,14.52
2019-05-07T19:45:08.724Z,14.36
2019-05-07T19:48:13.021Z,14.36
2019-05-07T19:51:17.024Z,14.36
2019-05-07T19:54:22.858Z,14.19
2019-05-07T19:57:33.159Z,14.19
2019-05-07T20:00:36.669Z,13.93
2019-05-07T20:03:40.527Z,13.80
2019-05-07T20:06:44.841Z,13.78
2019-05-07T20:09:48.634Z,13.68
2019-05-07T20:12:52.568Z,13.68
2019-05-07T20:16:08.232Z,13.59
2019-05-07T20:19:12.284Z,13.37
2019-05-07T20:22:16.171Z,13.18
2019-05-07T20:25:22.427Z,13.24
2019-05-07T20:28:26.144Z,13.28
2019-05-07T20:31:32.927Z,13.33
2019-05-07T20:34:36.334Z,13.31
2019-05-07T20:37:41.975Z,13.30
2019-05-07T20:40:46.676Z,13.29
2019-05-07T20:43:52.330Z,13.32
2019-05-07T20:46:57.647Z,13.34
2019-05-07T20:50:01.445Z,13.34
2019-05-07T20:53:05.613Z,13.27
2019-05-07T20:56:11.618Z,13.24
2019-05-07T20:59:15.614Z,13.18
2019-05-07T21:02:22.704Z,13.06
2019-05-07T21:05:26.157Z,13.01
2019-05-07T21:08:32.060Z,12.97
2019-05-07T21:11:35.873Z,12.90
2019-05-07T21:14:41.805Z,12.88
2019-05-07T21:17:45.766Z,12.75
2019-05-07T21:20:49.612Z,12.72
2019-05-07T21:23:53.506Z,12.72
2019-05-07T21:26:57.715Z,12.72
2019-05-07T21:30:02.567Z,12.75
2019-05-07T21:33:06.778Z,12.72
2019-05-07T21:36:12.163Z,12.67
2019-05-07T21:39:16.234Z,12.60
2019-05-07T21:42:20.170Z,12.55
2019-05-07T21:45:24.482Z,12.58
2019-05-07T21:48:28.749Z,12.53
2019-05-07T21:51:33.299Z,12.47
2019-05-07T21:54:46.770Z,12.40
2019-05-07T21:58:02.335Z,12.43
2019-05-07T22:01:09.288Z,12.46
2019-05-07T22:04:13.388Z,12.41
2019-05-07T22:07:17.300Z,12.37
2019-05-07T22:10:22.215Z,12.30
2019-05-07T22:13:28.304Z,12.26
2019-05-07T22:16:33.004Z,12.26
2019-05-07T22:19:37.082Z,12.27
2019-05-07T22:22:42.770Z,12.23
2019-05-07T22:25:46.649Z,12.24
2019-05-07T22:28:53.857Z,12.18
2019-05-07T22:32:13.398Z,12.15
2019-05-07T22:35:23.880Z,12.06
2019-05-07T22:38:27.674Z,12.04
2019-05-07T22:41:31.986Z,12.04
2019-05-07T22:44:35.808Z,12.04
2019-05-07T22:47:41.883Z,12.01
2019-05-07T22:50:45.494Z,11.95
2019-05-07T22:53:49.488Z,11.95
2019-05-07T22:57:02.956Z,11.92
2019-05-07T23:00:08.825Z,11.91
2019-05-07T23:03:13.336Z,11.81
2019-05-07T23:06:17.718Z,11.72
2019-05-07T23:09:22.369Z,11.70
2019-05-07T23:12:26.784Z,11.72
2019-05-07T23:15:32.152Z,11.67
2019-05-07T23:18:36.210Z,11.63
2019-05-07T23:21:42.560Z,11.55
2019-05-07T23:24:46.032Z,11.53
2019-05-07T23:27:49.946Z,11.39
2019-05-07T23:30:53.735Z,11.34
2019-05-07T23:33:57.619Z,11.27
2019-05-07T23:37:02.534Z,11.29
2019-05-07T23:40:13.577Z,11.29
2019-05-07T23:43:17.862Z,11.28
2019-05-07T23:46:24.737Z,11.31
2019-05-07T23:49:28.950Z,11.27
2019-05-07T23:52:32.815Z,11.35
2019-05-07T23:55:36.877Z,11.32
2019-05-07T23:58:41.971Z,11.29
